Somersett, Nevada
Current Conditions -  °F | °C
As of 10:55 PM on Saturday 25 Oct 2014 (Local Time) from KRNO Reporting Station
Scattered Clouds Scattered Clouds  
Wind Chill: 52°   Ceiling: Unl
Heat Index: 52°   Visibility: 10mi
Dew Point: 27°   Wind: 9mph
Humidity: 38%   Direction: 240°WSW
Pressure: 30.06"   Gusts: 22mph
Location:  39.5383°N, 119.938°W
Report Text: KRNO 260555Z 24008G19KT 10SM FEW055 SCT070 11/M03 A3006 RMK AO2 SLP145 T01111028 10139 20100 53009
Loading
Personal Weather Stations






























Interactive Weather Map
Tropical Storm Tracking
New forecast layout! Learn more

10-Day Weather Forecast

Advertisements
Track Severe Weather on mobile